sensor_id;sensor_type;location;lat;lon;timestamp;P1;durP1;ratioP1;P2;durP2;ratioP2
41984;SDS011;28319;48.116;10.818;2023-08-06T00:01:01;2.95;;;2.63;;
41984;SDS011;28319;48.116;10.818;2023-08-06T00:06:04;3.00;;;2.70;;
41984;SDS011;28319;48.116;10.818;2023-08-06T00:11:08;3.78;;;3.03;;
41984;SDS011;28319;48.116;10.818;2023-08-06T00:16:10;2.75;;;2.53;;
41984;SDS011;28319;48.116;10.818;2023-08-06T00:21:12;2.60;;;2.40;;
41984;SDS011;28319;48.116;10.818;2023-08-06T00:26:15;2.65;;;2.45;;
41984;SDS011;28319;48.116;10.818;2023-08-06T00:31:17;2.50;;;2.30;;
41984;SDS011;28319;48.116;10.818;2023-08-06T00:36:19;2.50;;;2.30;;
41984;SDS011;28319;48.116;10.818;2023-08-06T00:41:22;4.60;;;2.17;;
41984;SDS011;28319;48.116;10.818;2023-08-06T00:46:25;2.00;;;1.90;;
41984;SDS011;28319;48.116;10.818;2023-08-06T00:51:27;2.85;;;2.25;;
41984;SDS011;28319;48.116;10.818;2023-08-06T00:56:31;2.20;;;1.80;;
41984;SDS011;28319;48.116;10.818;2023-08-06T01:01:35;2.10;;;2.00;;
41984;SDS011;28319;48.116;10.818;2023-08-06T01:06:45;2.15;;;1.70;;
41984;SDS011;28319;48.116;10.818;2023-08-06T01:11:53;2.22;;;2.00;;
41984;SDS011;28319;48.116;10.818;2023-08-06T01:17:00;1.90;;;1.80;;
41984;SDS011;28319;48.116;10.818;2023-08-06T01:22:05;1.90;;;1.80;;
41984;SDS011;28319;48.116;10.818;2023-08-06T01:27:08;2.05;;;1.95;;
41984;SDS011;28319;48.116;10.818;2023-08-06T01:32:15;2.10;;;2.00;;
41984;SDS011;28319;48.116;10.818;2023-08-06T01:37:20;1.98;;;1.88;;
41984;SDS011;28319;48.116;10.818;2023-08-06T01:42:23;1.90;;;1.80;;
41984;SDS011;28319;48.116;10.818;2023-08-06T01:47:25;2.13;;;1.93;;
41984;SDS011;28319;48.116;10.818;2023-08-06T01:52:28;1.80;;;1.70;;
41984;SDS011;28319;48.116;10.818;2023-08-06T01:57:30;1.87;;;1.77;;
41984;SDS011;28319;48.116;10.818;2023-08-06T02:02:32;1.90;;;1.70;;
41984;SDS011;28319;48.116;10.818;2023-08-06T02:07:36;2.40;;;1.70;;
41984;SDS011;28319;48.116;10.818;2023-08-06T02:12:38;1.97;;;1.60;;
41984;SDS011;28319;48.116;10.818;2023-08-06T02:17:40;1.77;;;1.67;;
41984;SDS011;28319;48.116;10.818;2023-08-06T02:22:43;2.30;;;2.10;;
41984;SDS011;28319;48.116;10.818;2023-08-06T02:27:45;2.27;;;2.07;;
41984;SDS011;28319;48.116;10.818;2023-08-06T02:32:47;4.17;;;1.90;;
41984;SDS011;28319;48.116;10.818;2023-08-06T02:37:51;2.03;;;1.80;;
41984;SDS011;28319;48.116;10.818;2023-08-06T02:42:53;1.90;;;1.80;;
41984;SDS011;28319;48.116;10.818;2023-08-06T02:47:55;1.80;;;1.70;;
41984;SDS011;28319;48.116;10.818;2023-08-06T02:52:58;2.10;;;2.00;;
41984;SDS011;28319;48.116;10.818;2023-08-06T02:58:00;6.03;;;2.00;;
41984;SDS011;28319;48.116;10.818;2023-08-06T03:03:02;1.90;;;1.80;;
41984;SDS011;28319;48.116;10.818;2023-08-06T03:08:07;2.03;;;1.90;;
41984;SDS011;28319;48.116;10.818;2023-08-06T03:13:09;1.60;;;1.50;;
41984;SDS011;28319;48.116;10.818;2023-08-06T03:18:10;2.27;;;2.00;;
41984;SDS011;28319;48.116;10.818;2023-08-06T03:23:14;2.10;;;1.90;;
41984;SDS011;28319;48.116;10.818;2023-08-06T03:28:16;1.80;;;1.70;;
41984;SDS011;28319;48.116;10.818;2023-08-06T03:33:18;1.30;;;1.30;;
41984;SDS011;28319;48.116;10.818;2023-08-06T03:38:22;1.40;;;1.40;;
41984;SDS011;28319;48.116;10.818;2023-08-06T03:43:24;1.83;;;1.73;;
41984;SDS011;28319;48.116;10.818;2023-08-06T03:48:26;1.80;;;1.70;;
41984;SDS011;28319;48.116;10.818;2023-08-06T03:53:29;1.70;;;1.60;;
41984;SDS011;28319;48.116;10.818;2023-08-06T03:58:31;1.70;;;1.60;;
41984;SDS011;28319;48.116;10.818;2023-08-06T04:03:33;1.67;;;1.57;;
41984;SDS011;28319;48.116;10.818;2023-08-06T04:08:36;3.03;;;1.70;;
41984;SDS011;28319;48.116;10.818;2023-08-06T04:13:39;1.60;;;1.50;;
41984;SDS011;28319;48.116;10.818;2023-08-06T04:18:44;1.90;;;1.67;;
41984;SDS011;28319;48.116;10.818;2023-08-06T04:23:48;2.10;;;1.70;;
41984;SDS011;28319;48.116;10.818;2023-08-06T04:28:50;3.93;;;1.57;;
41984;SDS011;28319;48.116;10.818;2023-08-06T04:33:52;1.90;;;1.80;;
41984;SDS011;28319;48.116;10.818;2023-08-06T04:38:55;2.37;;;1.67;;
41984;SDS011;28319;48.116;10.818;2023-08-06T04:43:57;3.00;;;1.60;;
41984;SDS011;28319;48.116;10.818;2023-08-06T04:48:59;1.67;;;1.50;;
41984;SDS011;28319;48.116;10.818;2023-08-06T04:54:03;1.83;;;1.73;;
41984;SDS011;28319;48.116;10.818;2023-08-06T04:59:05;1.80;;;1.70;;
41984;SDS011;28319;48.116;10.818;2023-08-06T05:04:07;1.60;;;1.50;;
41984;SDS011;28319;48.116;10.818;2023-08-06T05:09:11;1.47;;;1.47;;
41984;SDS011;28319;48.116;10.818;2023-08-06T05:14:13;1.97;;;1.50;;
41984;SDS011;28319;48.116;10.818;2023-08-06T05:19:15;1.40;;;1.40;;
41984;SDS011;28319;48.116;10.818;2023-08-06T05:24:18;2.07;;;1.60;;
41984;SDS011;28319;48.116;10.818;2023-08-06T05:29:20;4.10;;;1.60;;
41984;SDS011;28319;48.116;10.818;2023-08-06T05:34:22;1.63;;;1.53;;
41984;SDS011;28319;48.116;10.818;2023-08-06T05:39:26;1.47;;;1.40;;
41984;SDS011;28319;48.116;10.818;2023-08-06T05:44:28;4.47;;;1.30;;
41984;SDS011;28319;48.116;10.818;2023-08-06T05:49:30;1.73;;;1.40;;
41984;SDS011;28319;48.116;10.818;2023-08-06T05:54:34;2.60;;;1.10;;
41984;SDS011;28319;48.116;10.818;2023-08-06T05:59:36;1.23;;;1.23;;
41984;SDS011;28319;48.116;10.818;2023-08-06T06:04:37;1.50;;;1.40;;
41984;SDS011;28319;48.116;10.818;2023-08-06T06:09:41;2.85;;;1.33;;
41984;SDS011;28319;48.116;10.818;2023-08-06T06:14:43;2.17;;;1.23;;
41984;SDS011;28319;48.116;10.818;2023-08-06T06:19:45;1.20;;;1.10;;
41984;SDS011;28319;48.116;10.818;2023-08-06T06:24:49;1.85;;;1.40;;
41984;SDS011;28319;48.116;10.818;2023-08-06T06:29:51;1.47;;;1.40;;
41984;SDS011;28319;48.116;10.818;2023-08-06T06:34:54;1.38;;;1.27;;
41984;SDS011;28319;48.116;10.818;2023-08-06T06:39:58;2.00;;;1.20;;
41984;SDS011;28319;48.116;10.818;2023-08-06T06:45:00;1.27;;;1.17;;
41984;SDS011;28319;48.116;10.818;2023-08-06T06:50:02;1.23;;;1.13;;
41984;SDS011;28319;48.116;10.818;2023-08-06T06:55:06;1.33;;;1.17;;
41984;SDS011;28319;48.116;10.818;2023-08-06T07:00:09;1.20;;;1.20;;
41984;SDS011;28319;48.116;10.818;2023-08-06T07:05:11;1.97;;;1.13;;
41984;SDS011;28319;48.116;10.818;2023-08-06T07:10:15;2.07;;;0.93;;
41984;SDS011;28319;48.116;10.818;2023-08-06T07:15:17;0.90;;;0.90;;
41984;SDS011;28319;48.116;10.818;2023-08-06T07:20:19;2.72;;;0.85;;
41984;SDS011;28319;48.116;10.818;2023-08-06T07:25:22;1.03;;;0.97;;
41984;SDS011;28319;48.116;10.818;2023-08-06T07:30:25;2.07;;;0.90;;
41984;SDS011;28319;48.116;10.818;2023-08-06T07:35:28;2.17;;;0.70;;
41984;SDS011;28319;48.116;10.818;2023-08-06T07:40:31;1.25;;;1.13;;
41984;SDS011;28319;48.116;10.818;2023-08-06T07:45:33;0.73;;;0.73;;
41984;SDS011;28319;48.116;10.818;2023-08-06T07:50:36;0.43;;;0.43;;
41984;SDS011;28319;48.116;10.818;2023-08-06T07:55:39;1.50;;;0.50;;
41984;SDS011;28319;48.116;10.818;2023-08-06T08:00:41;0.57;;;0.57;;
41984;SDS011;28319;48.116;10.818;2023-08-06T08:05:45;0.75;;;0.68;;
41984;SDS011;28319;48.116;10.818;2023-08-06T08:10:49;0.40;;;0.40;;
41984;SDS011;28319;48.116;10.818;2023-08-06T08:15:55;0.45;;;0.40;;
41984;SDS011;28319;48.116;10.818;2023-08-06T08:20:58;3.13;;;0.60;;
41984;SDS011;28319;48.116;10.818;2023-08-06T08:26:02;0.73;;;0.50;;
41984;SDS011;28319;48.116;10.818;2023-08-06T08:31:07;0.20;;;0.20;;
41984;SDS011;28319;48.116;10.818;2023-08-06T08:36:09;0.40;;;0.40;;
41984;SDS011;28319;48.116;10.818;2023-08-06T08:41:13;0.10;;;0.10;;
41984;SDS011;28319;48.116;10.818;2023-08-06T08:46:17;0.80;;;0.45;;
41984;SDS011;28319;48.116;10.818;2023-08-06T08:51:19;0.20;;;0.20;;
41984;SDS011;28319;48.116;10.818;2023-08-06T08:56:23;0.80;;;0.30;;
41984;SDS011;28319;48.116;10.818;2023-08-06T09:01:25;1.23;;;0.37;;
41984;SDS011;28319;48.116;10.818;2023-08-06T09:06:29;2.88;;;1.52;;
41984;SDS011;28319;48.116;10.818;2023-08-06T09:11:36;0.30;;;0.15;;
41984;SDS011;28319;48.116;10.818;2023-08-06T09:16:41;0.30;;;0.30;;
41984;SDS011;28319;48.116;10.818;2023-08-06T09:21:43;1.25;;;0.45;;
41984;SDS011;28319;48.116;10.818;2023-08-06T09:26:50;0.75;;;0.43;;
41984;SDS011;28319;48.116;10.818;2023-08-06T09:31:52;1.70;;;0.30;;
41984;SDS011;28319;48.116;10.818;2023-08-06T09:36:54;0.20;;;0.20;;
41984;SDS011;28319;48.116;10.818;2023-08-06T09:41:59;0.15;;;0.15;;
41984;SDS011;28319;48.116;10.818;2023-08-06T09:47:02;0.85;;;0.30;;
41984;SDS011;28319;48.116;10.818;2023-08-06T09:52:05;0.20;;;0.20;;
41984;SDS011;28319;48.116;10.818;2023-08-06T09:57:12;1.00;;;0.30;;
41984;SDS011;28319;48.116;10.818;2023-08-06T10:02:15;0.30;;;0.30;;
41984;SDS011;28319;48.116;10.818;2023-08-06T10:07:18;0.30;;;0.30;;
41984;SDS011;28319;48.116;10.818;2023-08-06T10:12:24;1.47;;;0.30;;
41984;SDS011;28319;48.116;10.818;2023-08-06T10:17:26;0.30;;;0.30;;
41984;SDS011;28319;48.116;10.818;2023-08-06T10:22:29;0.15;;;0.15;;
41984;SDS011;28319;48.116;10.818;2023-08-06T10:27:36;0.20;;;0.20;;
41984;SDS011;28319;48.116;10.818;2023-08-06T10:32:48;0.17;;;0.15;;
41984;SDS011;28319;48.116;10.818;2023-08-06T10:37:50;0.10;;;0.10;;
41984;SDS011;28319;48.116;10.818;2023-08-06T10:42:54;0.20;;;0.20;;
41984;SDS011;28319;48.116;10.818;2023-08-06T10:47:56;0.10;;;0.10;;
41984;SDS011;28319;48.116;10.818;2023-08-06T10:53:00;0.30;;;0.30;;
41984;SDS011;28319;48.116;10.818;2023-08-06T10:58:08;0.10;;;0.10;;
41984;SDS011;28319;48.116;10.818;2023-08-06T11:03:10;0.13;;;0.13;;
41984;SDS011;28319;48.116;10.818;2023-08-06T11:08:12;0.47;;;0.30;;
41984;SDS011;28319;48.116;10.818;2023-08-06T11:13:26;0.10;;;0.10;;
41984;SDS011;28319;48.116;10.818;2023-08-06T11:18:29;0.10;;;0.10;;
41984;SDS011;28319;48.116;10.818;2023-08-06T11:23:32;0.20;;;0.20;;
41984;SDS011;28319;48.116;10.818;2023-08-06T11:28:36;0.20;;;0.20;;
41984;SDS011;28319;48.116;10.818;2023-08-06T11:33:38;0.13;;;0.13;;
41984;SDS011;28319;48.116;10.818;2023-08-06T11:38:42;0.17;;;0.10;;
41984;SDS011;28319;48.116;10.818;2023-08-06T11:43:46;1.77;;;0.40;;
41984;SDS011;28319;48.116;10.818;2023-08-06T11:48:51;0.25;;;0.25;;
41984;SDS011;28319;48.116;10.818;2023-08-06T11:53:55;0.20;;;0.20;;
41984;SDS011;28319;48.116;10.818;2023-08-06T11:58:58;0.32;;;0.20;;
41984;SDS011;28319;48.116;10.818;2023-08-06T12:04:00;0.10;;;0.10;;
41984;SDS011;28319;48.116;10.818;2023-08-06T12:09:02;0.43;;;0.20;;
41984;SDS011;28319;48.116;10.818;2023-08-06T12:14:05;1.02;;;0.28;;
41984;SDS011;28319;48.116;10.818;2023-08-06T12:19:07;2.43;;;0.30;;
41984;SDS011;28319;48.116;10.818;2023-08-06T12:24:09;0.33;;;0.30;;
41984;SDS011;28319;48.116;10.818;2023-08-06T12:29:13;0.30;;;0.20;;
41984;SDS011;28319;48.116;10.818;2023-08-06T12:34:15;0.20;;;0.20;;
41984;SDS011;28319;48.116;10.818;2023-08-06T12:39:17;1.37;;;0.30;;
41984;SDS011;28319;48.116;10.818;2023-08-06T12:44:20;0.30;;;0.20;;
41984;SDS011;28319;48.116;10.818;2023-08-06T12:49:22;0.20;;;0.20;;
41984;SDS011;28319;48.116;10.818;2023-08-06T12:54:26;0.30;;;0.23;;
41984;SDS011;28319;48.116;10.818;2023-08-06T12:59:30;1.07;;;0.30;;
41984;SDS011;28319;48.116;10.818;2023-08-06T13:04:33;0.17;;;0.17;;
41984;SDS011;28319;48.116;10.818;2023-08-06T13:09:35;0.10;;;0.10;;
41984;SDS011;28319;48.116;10.818;2023-08-06T13:14:38;0.30;;;0.30;;
41984;SDS011;28319;48.116;10.818;2023-08-06T13:19:40;0.30;;;0.30;;
41984;SDS011;28319;48.116;10.818;2023-08-06T13:24:42;0.20;;;0.20;;
41984;SDS011;28319;48.116;10.818;2023-08-06T13:29:46;0.20;;;0.20;;
41984;SDS011;28319;48.116;10.818;2023-08-06T13:34:48;0.20;;;0.20;;
41984;SDS011;28319;48.116;10.818;2023-08-06T13:39:50;0.50;;;0.30;;
41984;SDS011;28319;48.116;10.818;2023-08-06T13:44:53;1.00;;;0.10;;
41984;SDS011;28319;48.116;10.818;2023-08-06T13:50:02;0.30;;;0.30;;
41984;SDS011;28319;48.116;10.818;2023-08-06T13:55:05;0.10;;;0.10;;
41984;SDS011;28319;48.116;10.818;2023-08-06T14:00:10;1.47;;;0.30;;
41984;SDS011;28319;48.116;10.818;2023-08-06T14:05:12;0.60;;;0.20;;
41984;SDS011;28319;48.116;10.818;2023-08-06T14:10:14;1.60;;;0.30;;
41984;SDS011;28319;48.116;10.818;2023-08-06T14:15:18;0.27;;;0.27;;
41984;SDS011;28319;48.116;10.818;2023-08-06T14:20:20;1.30;;;0.30;;
41984;SDS011;28319;48.116;10.818;2023-08-06T14:25:23;0.53;;;0.53;;
41984;SDS011;28319;48.116;10.818;2023-08-06T14:30:28;1.37;;;0.37;;
41984;SDS011;28319;48.116;10.818;2023-08-06T14:35:30;0.30;;;0.30;;
41984;SDS011;28319;48.116;10.818;2023-08-06T14:40:32;0.13;;;0.13;;
41984;SDS011;28319;48.116;10.818;2023-08-06T14:45:39;1.13;;;0.50;;
41984;SDS011;28319;48.116;10.818;2023-08-06T14:50:41;1.13;;;0.80;;
41984;SDS011;28319;48.116;10.818;2023-08-06T14:55:43;0.80;;;0.80;;
41984;SDS011;28319;48.116;10.818;2023-08-06T15:00:46;0.43;;;0.43;;
41984;SDS011;28319;48.116;10.818;2023-08-06T15:05:48;0.10;;;0.10;;
41984;SDS011;28319;48.116;10.818;2023-08-06T15:10:50;0.20;;;0.20;;
41984;SDS011;28319;48.116;10.818;2023-08-06T15:15:54;1.90;;;0.20;;
41984;SDS011;28319;48.116;10.818;2023-08-06T15:20:56;0.37;;;0.37;;
41984;SDS011;28319;48.116;10.818;2023-08-06T15:25:58;0.30;;;0.30;;
41984;SDS011;28319;48.116;10.818;2023-08-06T15:31:01;0.30;;;0.30;;
41984;SDS011;28319;48.116;10.818;2023-08-06T15:36:04;0.20;;;0.20;;
41984;SDS011;28319;48.116;10.818;2023-08-06T15:41:06;0.13;;;0.10;;
41984;SDS011;28319;48.116;10.818;2023-08-06T15:46:10;0.10;;;0.10;;
41984;SDS011;28319;48.116;10.818;2023-08-06T15:51:12;1.40;;;0.27;;
41984;SDS011;28319;48.116;10.818;2023-08-06T15:56:14;1.50;;;0.40;;
41984;SDS011;28319;48.116;10.818;2023-08-06T16:01:17;0.37;;;0.30;;
41984;SDS011;28319;48.116;10.818;2023-08-06T16:06:19;1.03;;;1.00;;
41984;SDS011;28319;48.116;10.818;2023-08-06T16:11:22;0.43;;;0.27;;
41984;SDS011;28319;48.116;10.818;2023-08-06T16:16:26;0.37;;;0.37;;
41984;SDS011;28319;48.116;10.818;2023-08-06T16:21:28;0.50;;;0.50;;
41984;SDS011;28319;48.116;10.818;2023-08-06T16:26:30;0.10;;;0.10;;
41984;SDS011;28319;48.116;10.818;2023-08-06T16:31:33;0.30;;;0.30;;
41984;SDS011;28319;48.116;10.818;2023-08-06T16:36:35;0.40;;;0.40;;
41984;SDS011;28319;48.116;10.818;2023-08-06T16:41:38;0.30;;;0.30;;
41984;SDS011;28319;48.116;10.818;2023-08-06T16:46:41;0.37;;;0.37;;
41984;SDS011;28319;48.116;10.818;2023-08-06T16:51:43;0.43;;;0.40;;
41984;SDS011;28319;48.116;10.818;2023-08-06T16:56:45;0.73;;;0.60;;
41984;SDS011;28319;48.116;10.818;2023-08-06T17:01:48;1.13;;;0.50;;
41984;SDS011;28319;48.116;10.818;2023-08-06T17:06:51;0.50;;;0.50;;
41984;SDS011;28319;48.116;10.818;2023-08-06T17:11:53;0.43;;;0.43;;
41984;SDS011;28319;48.116;10.818;2023-08-06T17:16:56;0.50;;;0.50;;
41984;SDS011;28319;48.116;10.818;2023-08-06T17:21:58;0.37;;;0.37;;
41984;SDS011;28319;48.116;10.818;2023-08-06T17:27:01;0.50;;;0.50;;
41984;SDS011;28319;48.116;10.818;2023-08-06T17:32:04;0.40;;;0.40;;
41984;SDS011;28319;48.116;10.818;2023-08-06T17:37:07;2.90;;;0.70;;
41984;SDS011;28319;48.116;10.818;2023-08-06T17:42:09;1.50;;;1.40;;
41984;SDS011;28319;48.116;10.818;2023-08-06T17:47:13;0.27;;;0.27;;
41984;SDS011;28319;48.116;10.818;2023-08-06T17:52:15;0.57;;;0.40;;
41984;SDS011;28319;48.116;10.818;2023-08-06T17:57:17;0.43;;;0.43;;
41984;SDS011;28319;48.116;10.818;2023-08-06T18:02:21;0.60;;;0.60;;
41984;SDS011;28319;48.116;10.818;2023-08-06T18:07:23;0.57;;;0.57;;
41984;SDS011;28319;48.116;10.818;2023-08-06T18:12:26;0.80;;;0.80;;
41984;SDS011;28319;48.116;10.818;2023-08-06T18:17:31;0.83;;;0.83;;
41984;SDS011;28319;48.116;10.818;2023-08-06T18:22:33;0.70;;;0.70;;
41984;SDS011;28319;48.116;10.818;2023-08-06T18:27:35;0.97;;;0.93;;
41984;SDS011;28319;48.116;10.818;2023-08-06T18:32:39;0.70;;;0.70;;
41984;SDS011;28319;48.116;10.818;2023-08-06T18:37:41;0.83;;;0.83;;
41984;SDS011;28319;48.116;10.818;2023-08-06T18:42:43;1.10;;;1.10;;
41984;SDS011;28319;48.116;10.818;2023-08-06T18:47:47;1.43;;;0.93;;
41984;SDS011;28319;48.116;10.818;2023-08-06T18:52:48;1.63;;;1.20;;
41984;SDS011;28319;48.116;10.818;2023-08-06T18:57:50;0.50;;;0.50;;
41984;SDS011;28319;48.116;10.818;2023-08-06T19:02:54;0.80;;;0.80;;
41984;SDS011;28319;48.116;10.818;2023-08-06T19:07:56;0.60;;;0.57;;
41984;SDS011;28319;48.116;10.818;2023-08-06T19:12:59;0.73;;;0.73;;
41984;SDS011;28319;48.116;10.818;2023-08-06T19:18:08;0.87;;;0.87;;
41984;SDS011;28319;48.116;10.818;2023-08-06T19:23:10;0.60;;;0.60;;
41984;SDS011;28319;48.116;10.818;2023-08-06T19:28:15;2.50;;;0.77;;
41984;SDS011;28319;48.116;10.818;2023-08-06T19:33:20;3.90;;;3.10;;
41984;SDS011;28319;48.116;10.818;2023-08-06T19:38:23;0.80;;;0.80;;
41984;SDS011;28319;48.116;10.818;2023-08-06T19:43:25;0.90;;;0.70;;
41984;SDS011;28319;48.116;10.818;2023-08-06T19:48:31;0.90;;;0.90;;
41984;SDS011;28319;48.116;10.818;2023-08-06T19:53:34;0.70;;;0.70;;
41984;SDS011;28319;48.116;10.818;2023-08-06T19:58:36;0.60;;;0.60;;
41984;SDS011;28319;48.116;10.818;2023-08-06T20:03:39;1.40;;;0.93;;
41984;SDS011;28319;48.116;10.818;2023-08-06T20:08:43;1.80;;;0.67;;
41984;SDS011;28319;48.116;10.818;2023-08-06T20:13:45;0.50;;;0.40;;
41984;SDS011;28319;48.116;10.818;2023-08-06T20:18:49;1.70;;;0.77;;
41984;SDS011;28319;48.116;10.818;2023-08-06T20:23:51;1.53;;;0.80;;
41984;SDS011;28319;48.116;10.818;2023-08-06T20:28:53;0.70;;;0.70;;
41984;SDS011;28319;48.116;10.818;2023-08-06T20:33:56;0.90;;;0.70;;
41984;SDS011;28319;48.116;10.818;2023-08-06T20:38:58;3.00;;;1.07;;
41984;SDS011;28319;48.116;10.818;2023-08-06T20:44:00;0.97;;;0.80;;
41984;SDS011;28319;48.116;10.818;2023-08-06T20:49:04;0.67;;;0.67;;
41984;SDS011;28319;48.116;10.818;2023-08-06T20:54:06;0.80;;;0.80;;
41984;SDS011;28319;48.116;10.818;2023-08-06T20:59:08;2.13;;;1.00;;
41984;SDS011;28319;48.116;10.818;2023-08-06T21:04:11;0.90;;;0.90;;
41984;SDS011;28319;48.116;10.818;2023-08-06T21:09:13;0.90;;;0.90;;
41984;SDS011;28319;48.116;10.818;2023-08-06T21:14:15;1.37;;;1.27;;
41984;SDS011;28319;48.116;10.818;2023-08-06T21:19:19;1.00;;;1.00;;
41984;SDS011;28319;48.116;10.818;2023-08-06T21:24:21;2.10;;;1.07;;
41984;SDS011;28319;48.116;10.818;2023-08-06T21:29:23;1.23;;;0.97;;
41984;SDS011;28319;48.116;10.818;2023-08-06T21:34:26;1.17;;;0.80;;
41984;SDS011;28319;48.116;10.818;2023-08-06T21:39:28;0.87;;;0.87;;
41984;SDS011;28319;48.116;10.818;2023-08-06T21:44:30;0.90;;;0.90;;
41984;SDS011;28319;48.116;10.818;2023-08-06T21:49:33;1.03;;;0.90;;
41984;SDS011;28319;48.116;10.818;2023-08-06T21:54:36;0.90;;;0.90;;
41984;SDS011;28319;48.116;10.818;2023-08-06T21:59:38;1.13;;;1.00;;
41984;SDS011;28319;48.116;10.818;2023-08-06T22:04:41;1.53;;;0.90;;
41984;SDS011;28319;48.116;10.818;2023-08-06T22:09:43;0.80;;;0.80;;
41984;SDS011;28319;48.116;10.818;2023-08-06T22:14:45;0.90;;;0.90;;
41984;SDS011;28319;48.116;10.818;2023-08-06T22:19:49;1.47;;;1.10;;
41984;SDS011;28319;48.116;10.818;2023-08-06T22:24:51;3.63;;;0.93;;
41984;SDS011;28319;48.116;10.818;2023-08-06T22:29:53;1.40;;;1.20;;
41984;SDS011;28319;48.116;10.818;2023-08-06T22:34:56;0.67;;;0.67;;
41984;SDS011;28319;48.116;10.818;2023-08-06T22:39:58;1.50;;;0.90;;
41984;SDS011;28319;48.116;10.818;2023-08-06T22:45:00;0.63;;;0.63;;
41984;SDS011;28319;48.116;10.818;2023-08-06T22:50:04;0.73;;;0.67;;
41984;SDS011;28319;48.116;10.818;2023-08-06T22:55:07;0.93;;;0.93;;
41984;SDS011;28319;48.116;10.818;2023-08-06T23:00:10;1.93;;;0.90;;
41984;SDS011;28319;48.116;10.818;2023-08-06T23:05:14;2.40;;;0.93;;
41984;SDS011;28319;48.116;10.818;2023-08-06T23:10:16;1.20;;;1.10;;
41984;SDS011;28319;48.116;10.818;2023-08-06T23:15:18;2.00;;;0.90;;
41984;SDS011;28319;48.116;10.818;2023-08-06T23:20:22;0.80;;;0.80;;
41984;SDS011;28319;48.116;10.818;2023-08-06T23:25:24;1.23;;;0.77;;
41984;SDS011;28319;48.116;10.818;2023-08-06T23:30:26;0.70;;;0.70;;
41984;SDS011;28319;48.116;10.818;2023-08-06T23:35:30;1.03;;;0.93;;
41984;SDS011;28319;48.116;10.818;2023-08-06T23:40:32;0.93;;;0.93;;
41984;SDS011;28319;48.116;10.818;2023-08-06T23:45:34;0.90;;;0.90;;
41984;SDS011;28319;48.116;10.818;2023-08-06T23:50:38;0.93;;;0.93;;
41984;SDS011;28319;48.116;10.818;2023-08-06T23:55:40;0.97;;;0.90;;
